Airfield :
LOGIN :

Register | Disclaimer

   EN    FR    IT 

 










Legend :    VFR   Marginal VFR   IFR   Intensive IFR   Very Intensive IFR
Visi :
Ceiling :
>= 8 km
>= 3000ft
5 to 8 km
1000 to 3000 ft
1500m to 5 km
500 to 1000 ft
800 to 1500m
200 to 500 ft
< 800m
< 200 ft
Symbols :   Thunderstorms  Fog  Heavy snow  Heavy precipitations  Wind > 20 kt
SIGMETs :     Misc.  Thunderstorms  Icing  Turbulence  Mountain Waves  Volcanic Ashes







- Airport Elevation : 141 ft
- IATA code : SKS


EKSP - Srydstrup Vojens

CURRENT METAR :
  • 161750Z 09006KT 060V120 CAVOK 26/11 Q1013

EXPIRED METARs :
  • 161720Z 07004KT 350V110 CAVOK 27/08 Q1013
  • 161650Z 06003KT CAVOK 27/08 Q1013
  • 161620Z 07006KT 020V110 CAVOK 27/08 Q1014
  • 161550Z 08005KT 340V120 CAVOK 27/09 Q1014
  • 161520Z 08006KT 350V150 CAVOK 27/10 Q1014

TAF TAF EKSP
Valid from the 16 at 18:00 until the 17 at 18:00 UTC


161729Z 1618/1718 VRB06KT 9999 FEW045
TEMPO 1712/1718 6000 TSRA BKN050CB
No reported NOTAMs for that airfield.



MET'MAP, your aeronautical weather chart ! - Copyright ORBIFLY December 2007 - Disclaimer

ORBIFLY MET'MAP TEAM :

Programming & Development : Alexandra Zaïnal
Concept & Development : Baudouin d'Aumeries
Co-Development & Prog : Marc-Olivier Méhu
Technical & hardware support : Manuel Goepfert

Contact : metmap@orbifly.com




SOURCES & CREDITS :

   NOAA